createdAt,value
2019-03-13T00:00:08.384Z,6.54
2019-03-13T00:01:08.179Z,6.61
2019-03-13T00:02:08.093Z,6.54
2019-03-13T00:03:08.064Z,6.63
2019-03-13T00:04:07.922Z,6.63
2019-03-13T00:05:07.859Z,6.61
2019-03-13T00:06:07.777Z,6.60
2019-03-13T00:07:07.669Z,6.65
2019-03-13T00:08:07.582Z,6.58
2019-03-13T00:09:07.499Z,6.58
2019-03-13T00:10:07.421Z,6.64
2019-03-13T00:11:07.321Z,6.54
2019-03-13T00:12:07.307Z,6.55
2019-03-13T00:13:07.155Z,6.58
2019-03-13T00:14:07.073Z,6.58
2019-03-13T00:15:06.998Z,6.68
2019-03-13T00:16:06.924Z,6.68
2019-03-13T00:17:06.812Z,6.57
2019-03-13T00:18:06.728Z,6.54
2019-03-13T00:19:06.741Z,6.58
2019-03-13T00:20:06.566Z,6.55
2019-03-13T00:21:06.465Z,6.54
2019-03-13T00:22:07.477Z,6.60
2019-03-13T00:23:06.296Z,6.60
2019-03-13T00:24:06.211Z,6.53
2019-03-13T00:25:06.196Z,6.68
2019-03-13T00:26:06.033Z,6.57
2019-03-13T00:27:05.948Z,6.68
2019-03-13T00:28:05.882Z,6.63
2019-03-13T00:29:05.777Z,6.54
2019-03-13T00:30:05.720Z,6.55
2019-03-13T00:31:05.609Z,6.55
2019-03-13T00:32:05.604Z,6.58
2019-03-13T00:33:05.435Z,6.54
2019-03-13T00:34:06.433Z,6.58
2019-03-13T00:35:05.276Z,6.60
2019-03-13T00:36:05.220Z,6.55
2019-03-13T00:37:05.090Z,6.54
2019-03-13T00:38:05.029Z,6.55
2019-03-13T00:39:04.920Z,6.61
2019-03-13T00:40:04.874Z,6.60
2019-03-13T00:41:04.745Z,6.58
2019-03-13T00:42:04.749Z,6.69
2019-03-13T00:43:04.576Z,6.57
2019-03-13T00:44:04.491Z,6.55
2019-03-13T00:45:04.495Z,6.58
2019-03-13T00:46:04.318Z,6.55
2019-03-13T00:47:04.236Z,6.68
2019-03-13T00:48:04.157Z,6.64
2019-03-13T00:49:04.063Z,6.55
2019-03-13T00:50:03.986Z,6.61
2019-03-13T00:51:04.002Z,6.53
2019-03-13T00:52:03.802Z,6.61
2019-03-13T00:53:03.716Z,6.58
2019-03-13T00:54:03.703Z,6.55
2019-03-13T00:55:03.729Z,6.63
2019-03-13T00:56:03.518Z,6.61
2019-03-13T00:57:03.382Z,6.68
2019-03-13T00:58:03.322Z,6.55
2019-03-13T00:59:03.206Z,6.71
2019-03-13T01:00:03.132Z,6.57
2019-03-13T01:01:03.057Z,6.57
2019-03-13T01:02:03.045Z,6.58
2019-03-13T01:03:02.866Z,6.61
2019-03-13T01:04:02.779Z,6.65
2019-03-13T01:05:02.756Z,6.63
2019-03-13T01:06:02.623Z,6.55
2019-03-13T01:07:02.513Z,6.57
2019-03-13T01:08:02.471Z,6.69
2019-03-13T01:09:02.345Z,6.65
2019-03-13T01:10:02.279Z,6.73
2019-03-13T01:11:02.191Z,6.72
2019-03-13T01:12:02.191Z,6.75
2019-03-13T01:13:02.002Z,6.69
2019-03-13T01:14:01.915Z,6.71
2019-03-13T01:15:03.850Z,6.71
2019-03-13T01:16:01.767Z,6.79
2019-03-13T01:17:01.658Z,6.76
2019-03-13T01:18:01.623Z,6.69
2019-03-13T01:19:01.507Z,6.69
2019-03-13T01:20:01.428Z,6.71
2019-03-13T01:21:01.328Z,6.64
2019-03-13T01:22:01.337Z,6.68
2019-03-13T01:23:01.152Z,6.72
2019-03-13T01:24:01.146Z,6.65
2019-03-13T01:25:00.973Z,6.72
2019-03-13T01:26:02.931Z,6.65
2019-03-13T01:27:00.804Z,6.72
2019-03-13T01:28:00.766Z,6.65
2019-03-13T01:29:00.633Z,6.68
2019-03-13T01:30:00.550Z,6.68
2019-03-13T01:31:00.519Z,6.78
2019-03-13T01:32:00.373Z,6.82
2019-03-13T01:33:00.287Z,6.82
2019-03-13T01:34:00.294Z,6.93
2019-03-13T01:35:00.160Z,6.93
2019-03-13T01:36:00.043Z,6.87
2019-03-13T01:37:00.010Z,6.89
2019-03-13T01:37:59.857Z,6.91
2019-03-13T01:38:59.776Z,6.91
2019-03-13T01:39:59.721Z,6.93
2019-03-13T01:40:59.616Z,6.91
2019-03-13T01:41:59.530Z,6.97
2019-03-13T01:42:59.438Z,6.94
2019-03-13T01:43:59.346Z,6.97
2019-03-13T01:44:59.349Z,6.94
2019-03-13T01:45:59.186Z,6.90
2019-03-13T01:46:59.084Z,6.93
2019-03-13T01:47:59.062Z,6.93
2019-03-13T01:48:58.934Z,6.93
2019-03-13T01:49:58.829Z,6.99
2019-03-13T01:50:58.806Z,6.97
2019-03-13T01:51:58.669Z,6.99
2019-03-13T01:52:58.574Z,6.96
2019-03-13T01:53:58.589Z,6.89
2019-03-13T01:54:58.405Z,6.93
2019-03-13T01:55:59.350Z,7.04
2019-03-13T01:56:58.231Z,6.93
2019-03-13T01:57:58.207Z,6.93
2019-03-13T01:58:58.059Z,6.94
2019-03-13T01:59:57.976Z,6.81
2019-03-13T02:00:57.981Z,6.86
2019-03-13T02:01:57.810Z,6.91
2019-03-13T02:02:57.722Z,6.82
2019-03-13T02:03:57.738Z,6.93
2019-03-13T02:04:57.551Z,6.81
2019-03-13T02:05:57.477Z,6.82
2019-03-13T02:06:59.409Z,6.83
2019-03-13T02:07:57.290Z,6.78
2019-03-13T02:08:57.215Z,6.79
2019-03-13T02:09:57.165Z,6.82
2019-03-13T02:10:57.055Z,6.82
2019-03-13T02:11:56.982Z,6.82
2019-03-13T02:12:56.859Z,6.87
2019-03-13T02:13:56.885Z,6.93
2019-03-13T02:14:56.703Z,6.91
2019-03-13T02:15:56.616Z,6.90
2019-03-13T02:16:56.600Z,6.79
2019-03-13T02:17:56.426Z,6.82
2019-03-13T02:18:56.352Z,6.82
2019-03-13T02:19:56.318Z,6.82
2019-03-13T02:20:56.184Z,6.79
2019-03-13T02:21:56.152Z,6.89
2019-03-13T02:22:55.998Z,6.76
2019-03-13T02:23:55.935Z,6.82
2019-03-13T02:24:55.827Z,6.86
2019-03-13T02:25:55.766Z,6.82
2019-03-13T02:26:55.750Z,6.86
2019-03-13T02:27:55.571Z,6.79
2019-03-13T02:28:55.483Z,6.83
2019-03-13T02:29:57.516Z,6.82
2019-03-13T02:30:55.312Z,6.79
2019-03-13T02:31:55.241Z,6.82
2019-03-13T02:32:55.143Z,6.82
2019-03-13T02:33:55.078Z,6.83
2019-03-13T02:34:54.983Z,6.79
2019-03-13T02:36:02.893Z,6.90
2019-03-13T02:36:54.834Z,6.93
2019-03-13T02:37:54.808Z,6.96
2019-03-13T02:38:54.625Z,6.97
2019-03-13T02:39:54.611Z,6.96
2019-03-13T02:40:54.454Z,6.96
2019-03-13T02:41:56.397Z,6.97
2019-03-13T02:42:54.284Z,6.93
2019-03-13T02:43:54.201Z,6.99
2019-03-13T02:44:54.113Z,6.97
2019-03-13T02:45:54.033Z,6.99
2019-03-13T02:46:53.972Z,6.90
2019-03-13T02:47:53.866Z,6.94
2019-03-13T02:48:53.764Z,7.09
2019-03-13T02:49:53.764Z,6.97
2019-03-13T02:50:53.599Z,7.04
2019-03-13T02:51:53.609Z,7.15
2019-03-13T02:52:53.428Z,7.04
2019-03-13T02:53:53.374Z,7.01
2019-03-13T02:54:53.278Z,7.09
2019-03-13T02:55:53.165Z,7.19
2019-03-13T02:56:53.127Z,7.23
2019-03-13T02:57:53.000Z,7.30
2019-03-13T02:58:52.917Z,7.23
2019-03-13T02:59:52.910Z,7.24
2019-03-13T03:00:52.738Z,7.29
2019-03-13T03:01:52.660Z,7.33
2019-03-13T03:02:52.812Z,7.39
2019-03-13T03:03:52.484Z,7.26
2019-03-13T03:04:52.392Z,7.37
2019-03-13T03:05:52.344Z,7.36
2019-03-13T03:06:52.236Z,7.42
2019-03-13T03:07:52.240Z,7.39
2019-03-13T03:08:52.053Z,7.29
2019-03-13T03:09:52.052Z,7.36
2019-03-13T03:10:51.882Z,7.33
2019-03-13T03:11:51.895Z,7.37
2019-03-13T03:12:51.706Z,7.32
2019-03-13T03:13:51.673Z,7.34
2019-03-13T03:14:51.543Z,7.36
2019-03-13T03:15:51.450Z,7.45
2019-03-13T03:16:51.425Z,7.48
2019-03-13T03:17:51.277Z,7.50
2019-03-13T03:18:51.192Z,7.47
2019-03-13T03:19:51.201Z,7.47
2019-03-13T03:20:51.038Z,7.47
2019-03-13T03:21:51.054Z,7.42
2019-03-13T03:22:50.856Z,7.41
2019-03-13T03:23:50.830Z,7.51
2019-03-13T03:24:50.681Z,7.45
2019-03-13T03:25:50.599Z,7.41
2019-03-13T03:26:50.609Z,7.36
2019-03-13T03:27:50.426Z,7.37
2019-03-13T03:28:50.341Z,7.37
2019-03-13T03:29:50.354Z,7.29
2019-03-13T03:30:50.176Z,7.23
2019-03-13T03:31:50.102Z,7.19
2019-03-13T03:32:50.088Z,7.26
2019-03-13T03:33:49.918Z,7.24
2019-03-13T03:34:49.830Z,7.26
2019-03-13T03:35:49.771Z,7.18
2019-03-13T03:36:49.676Z,7.14
2019-03-13T03:37:49.584Z,7.15
2019-03-13T03:38:49.495Z,7.23
2019-03-13T03:39:49.500Z,7.14
2019-03-13T03:40:49.316Z,7.05
2019-03-13T03:41:49.252Z,7.01
2019-03-13T03:42:49.206Z,7.00
2019-03-13T03:43:49.052Z,7.07
2019-03-13T03:44:48.974Z,7.01
2019-03-13T03:45:48.917Z,7.00
2019-03-13T03:46:48.823Z,6.96
2019-03-13T03:47:48.711Z,6.96
2019-03-13T03:48:48.737Z,6.94
2019-03-13T03:49:48.537Z,6.96
2019-03-13T03:50:48.507Z,7.00
2019-03-13T03:51:49.400Z,7.01
2019-03-13T03:52:48.283Z,7.07
2019-03-13T03:53:48.198Z,7.08
2019-03-13T03:54:48.166Z,7.07
2019-03-13T03:55:48.037Z,7.00
2019-03-13T03:56:47.951Z,6.99
2019-03-13T03:57:47.873Z,6.94
2019-03-13T03:58:47.764Z,6.94
2019-03-13T03:59:47.676Z,6.93
2019-03-13T04:00:47.687Z,6.99
2019-03-13T04:01:47.529Z,6.81
2019-03-13T04:02:47.440Z,6.94
2019-03-13T04:03:47.425Z,6.93
2019-03-13T04:04:47.261Z,6.90
2019-03-13T04:05:47.168Z,6.94
2019-03-13T04:06:47.123Z,7.00
2019-03-13T04:07:47.074Z,7.00
2019-03-13T04:08:46.906Z,6.99
2019-03-13T04:09:46.837Z,7.04
2019-03-13T04:10:46.733Z,7.01
2019-03-13T04:11:46.654Z,7.05
2019-03-13T04:12:46.678Z,7.01
2019-03-13T04:13:46.478Z,7.08
2019-03-13T04:14:46.392Z,7.08
2019-03-13T04:15:46.362Z,7.08
2019-03-13T04:16:46.222Z,7.18
2019-03-13T04:17:46.204Z,7.30
2019-03-13T04:18:46.049Z,7.37
2019-03-13T04:19:45.982Z,7.34
2019-03-13T04:20:45.882Z,7.42
2019-03-13T04:21:45.788Z,7.45
2019-03-13T04:22:45.844Z,7.48
2019-03-13T04:23:45.621Z,7.44
2019-03-13T04:24:45.532Z,7.41
2019-03-13T04:25:45.515Z,7.34
2019-03-13T04:26:45.364Z,7.37
2019-03-13T04:27:45.349Z,7.44
2019-03-13T04:28:45.202Z,7.44
2019-03-13T04:29:45.151Z,7.58
2019-03-13T04:30:45.016Z,7.50
2019-03-13T04:31:45.048Z,7.54
2019-03-13T04:32:44.867Z,7.55
2019-03-13T04:33:44.853Z,7.45
2019-03-13T04:34:44.673Z,7.37
2019-03-13T04:35:44.658Z,7.39
2019-03-13T04:36:44.505Z,7.37
2019-03-13T04:37:45.529Z,7.32
2019-03-13T04:38:44.334Z,7.30
2019-03-13T04:39:44.293Z,7.34
2019-03-13T04:40:44.161Z,7.36
2019-03-13T04:41:44.075Z,7.33
2019-03-13T04:42:44.023Z,7.36
2019-03-13T04:43:43.913Z,7.44
2019-03-13T04:44:43.819Z,7.42
2019-03-13T04:45:43.807Z,7.48
2019-03-13T04:46:43.649Z,7.58
2019-03-13T04:47:43.582Z,7.55
2019-03-13T04:48:43.520Z,7.51
2019-03-13T04:49:43.390Z,7.51
2019-03-13T04:50:43.311Z,7.66
2019-03-13T04:51:43.338Z,7.57
2019-03-13T04:52:43.147Z,7.66
2019-03-13T04:53:43.149Z,7.63
2019-03-13T04:54:42.963Z,7.62
2019-03-13T04:55:44.904Z,7.70
2019-03-13T04:56:42.793Z,7.73
2019-03-13T04:57:42.723Z,7.71
2019-03-13T04:58:42.622Z,7.71
2019-03-13T04:59:42.570Z,7.74
2019-03-13T05:00:42.448Z,7.70
2019-03-13T05:01:42.364Z,7.69
2019-03-13T05:02:42.297Z,7.67
2019-03-13T05:03:42.290Z,7.67
2019-03-13T05:04:42.110Z,7.74
2019-03-13T05:05:42.099Z,7.82
2019-03-13T05:06:41.940Z,7.86
2019-03-13T05:07:41.879Z,7.85
2019-03-13T05:08:45.458Z,7.84
2019-03-13T05:09:41.681Z,7.84
2019-03-13T05:10:41.598Z,7.82
2019-03-13T05:11:41.532Z,7.82
2019-03-13T05:12:41.437Z,7.76
2019-03-13T05:13:42.365Z,7.85
2019-03-13T05:14:41.257Z,7.81
2019-03-13T05:15:41.251Z,7.77
2019-03-13T05:16:41.083Z,7.77
2019-03-13T05:17:41.011Z,7.91
2019-03-13T05:18:47.933Z,7.79
2019-03-13T05:19:40.828Z,7.82
2019-03-13T05:20:40.745Z,7.82
2019-03-13T05:21:40.679Z,7.77
2019-03-13T05:22:40.582Z,7.81
2019-03-13T05:23:40.487Z,7.85
2019-03-13T05:24:49.404Z,7.88
2019-03-13T05:25:40.316Z,7.82
2019-03-13T05:26:40.229Z,7.86
2019-03-13T05:27:40.237Z,7.84
2019-03-13T05:28:40.083Z,7.88
2019-03-13T05:29:40.017Z,7.84
2019-03-13T05:30:39.887Z,7.86
2019-03-13T05:31:39.825Z,7.92
2019-03-13T05:32:39.730Z,7.89
2019-03-13T05:33:39.746Z,7.99
2019-03-13T05:34:39.557Z,7.92
2019-03-13T05:35:39.552Z,7.99
2019-03-13T05:36:39.378Z,7.94
2019-03-13T05:37:39.318Z,7.89
2019-03-13T05:38:39.209Z,7.94
2019-03-13T05:39:39.163Z,7.92
2019-03-13T05:40:39.037Z,7.94
2019-03-13T05:41:38.949Z,7.99
2019-03-13T05:42:39.899Z,7.95
2019-03-13T05:43:38.794Z,7.94
2019-03-13T05:44:38.696Z,7.91
2019-03-13T05:45:38.618Z,7.91
2019-03-13T05:46:38.525Z,7.99
2019-03-13T05:47:38.445Z,7.96
2019-03-13T05:48:38.373Z,7.92
2019-03-13T05:49:38.273Z,7.88
2019-03-13T05:50:38.182Z,7.91
2019-03-13T05:51:38.106Z,7.91
2019-03-13T05:52:38.046Z,7.94
2019-03-13T05:53:38.396Z,7.92
2019-03-13T05:54:37.849Z,7.94
2019-03-13T05:55:37.756Z,7.92
2019-03-13T05:56:40.623Z,7.89
2019-03-13T05:57:37.592Z,7.94
2019-03-13T05:58:37.511Z,7.92
2019-03-13T05:59:37.414Z,7.92
2019-03-13T06:00:37.337Z,7.95
2019-03-13T06:01:37.245Z,7.92
2019-03-13T06:02:37.162Z,7.91
2019-03-13T06:03:37.096Z,7.96
2019-03-13T06:04:36.991Z,7.99
2019-03-13T06:05:36.909Z,8.00
2019-03-13T06:06:36.824Z,7.99
2019-03-13T06:07:36.733Z,7.94
2019-03-13T06:08:36.668Z,7.96
2019-03-13T06:09:36.563Z,7.92
2019-03-13T06:10:36.480Z,8.06
2019-03-13T06:11:36.404Z,7.95
2019-03-13T06:12:36.307Z,7.96
2019-03-13T06:13:36.243Z,7.95
2019-03-13T06:14:36.137Z,8.00
2019-03-13T06:15:36.064Z,7.96
2019-03-13T06:16:35.980Z,7.91
2019-03-13T06:17:35.883Z,7.92
2019-03-13T06:18:35.825Z,7.99
2019-03-13T06:19:35.710Z,7.88
2019-03-13T06:20:35.629Z,7.99
2019-03-13T06:21:35.550Z,7.95
2019-03-13T06:22:35.455Z,7.92
2019-03-13T06:23:35.390Z,8.00
2019-03-13T06:24:35.290Z,7.91
2019-03-13T06:25:35.210Z,7.96
2019-03-13T06:26:35.120Z,7.92
2019-03-13T06:27:35.035Z,7.95
2019-03-13T06:28:34.961Z,7.92
2019-03-13T06:29:34.865Z,7.89
2019-03-13T06:30:34.785Z,7.95
2019-03-13T06:31:34.693Z,7.89
2019-03-13T06:32:34.603Z,8.04
2019-03-13T06:33:34.533Z,7.89
2019-03-13T06:34:34.440Z,7.95
2019-03-13T06:35:34.348Z,7.96
2019-03-13T06:36:34.263Z,7.94
2019-03-13T06:37:34.182Z,7.91
2019-03-13T06:38:34.106Z,7.77
2019-03-13T06:39:34.015Z,7.79
2019-03-13T06:40:33.922Z,7.79
2019-03-13T06:41:33.862Z,7.71
2019-03-13T06:42:33.756Z,7.81
2019-03-13T06:43:33.685Z,7.82
2019-03-13T06:44:33.595Z,7.79
2019-03-13T06:45:33.499Z,7.84
2019-03-13T06:46:33.409Z,7.79
2019-03-13T06:47:33.335Z,7.91
2019-03-13T06:48:33.257Z,7.88
2019-03-13T06:49:33.161Z,7.94
2019-03-13T06:50:33.074Z,7.86
2019-03-13T06:51:32.989Z,7.91
2019-03-13T06:52:32.901Z,7.82
2019-03-13T06:53:32.827Z,7.81
2019-03-13T06:54:32.742Z,7.91
2019-03-13T06:55:32.651Z,7.79
2019-03-13T06:56:32.560Z,7.77
2019-03-13T06:57:32.474Z,7.82
2019-03-13T06:58:32.402Z,7.85
2019-03-13T06:59:32.340Z,7.77
2019-03-13T07:00:32.218Z,7.85
2019-03-13T07:01:32.137Z,7.85
2019-03-13T07:02:32.055Z,7.86
2019-03-13T07:03:32.005Z,7.76
2019-03-13T07:04:31.878Z,7.81
2019-03-13T07:05:31.812Z,7.76
2019-03-13T07:06:31.707Z,7.85
2019-03-13T07:07:31.624Z,7.74
2019-03-13T07:08:31.537Z,7.77
2019-03-13T07:09:31.474Z,7.70
2019-03-13T07:10:31.366Z,7.74
2019-03-13T07:11:31.295Z,7.71
2019-03-13T07:12:31.197Z,7.71
2019-03-13T07:13:31.113Z,7.77
2019-03-13T07:14:31.052Z,7.69
2019-03-13T07:15:30.942Z,7.73
2019-03-13T07:16:30.855Z,7.73
2019-03-13T07:17:30.779Z,7.73
2019-03-13T07:18:30.686Z,7.69
2019-03-13T07:19:30.639Z,7.73
2019-03-13T07:20:30.514Z,7.70
2019-03-13T07:21:30.438Z,7.76
2019-03-13T07:22:30.355Z,7.67
2019-03-13T07:23:30.275Z,7.66
2019-03-13T07:24:30.189Z,7.71
2019-03-13T07:25:30.101Z,7.71
2019-03-13T07:26:30.008Z,7.67
2019-03-13T07:27:29.927Z,7.71
2019-03-13T07:28:29.835Z,7.70
2019-03-13T07:29:29.775Z,7.69
2019-03-13T07:30:29.670Z,7.71
2019-03-13T07:31:29.585Z,7.71
2019-03-13T07:32:29.494Z,7.70
2019-03-13T07:33:29.425Z,7.71
2019-03-13T07:34:29.345Z,7.73
2019-03-13T07:35:29.240Z,7.85
2019-03-13T07:36:30.159Z,7.79
2019-03-13T07:37:29.075Z,7.77
2019-03-13T07:38:28.991Z,7.86
2019-03-13T07:39:28.921Z,7.92
2019-03-13T07:40:28.823Z,7.94
2019-03-13T07:41:28.727Z,7.94
2019-03-13T07:42:28.659Z,7.99
2019-03-13T07:43:28.574Z,8.07
2019-03-13T07:44:28.503Z,7.96
2019-03-13T07:45:28.394Z,8.03
2019-03-13T07:46:28.303Z,8.07
2019-03-13T07:47:29.445Z,8.12
2019-03-13T07:48:28.143Z,8.06
2019-03-13T07:49:28.092Z,8.06
2019-03-13T07:50:27.979Z,8.02
2019-03-13T07:51:27.893Z,8.07
2019-03-13T07:52:27.809Z,8.02
2019-03-13T07:53:27.721Z,8.09
2019-03-13T07:54:27.650Z,7.99
2019-03-13T07:55:27.542Z,8.04
2019-03-13T07:56:27.468Z,8.04
2019-03-13T07:57:27.379Z,7.99
2019-03-13T07:58:27.288Z,7.99
2019-03-13T07:59:27.215Z,8.06
2019-03-13T08:00:27.128Z,8.02
2019-03-13T08:01:27.041Z,8.04
2019-03-13T08:02:26.957Z,7.99
2019-03-13T08:03:26.871Z,8.02
2019-03-13T08:04:26.795Z,8.00
2019-03-13T08:05:26.700Z,8.04
2019-03-13T08:06:26.616Z,7.94
2019-03-13T08:07:26.525Z,7.96
2019-03-13T08:08:26.452Z,7.99
2019-03-13T08:09:26.365Z,7.99
2019-03-13T08:10:26.291Z,7.89
2019-03-13T08:11:26.200Z,7.89
2019-03-13T08:12:26.102Z,7.84
2019-03-13T08:13:26.013Z,7.77
2019-03-13T08:14:25.956Z,7.84
2019-03-13T08:15:25.846Z,7.84
2019-03-13T08:16:25.766Z,7.91
2019-03-13T08:17:25.685Z,7.94
2019-03-13T08:18:25.604Z,7.91
2019-03-13T08:19:25.534Z,7.91
2019-03-13T08:20:25.440Z,7.91
2019-03-13T08:21:25.335Z,7.94
2019-03-13T08:22:25.267Z,7.92
2019-03-13T08:23:25.170Z,7.96
2019-03-13T08:24:25.099Z,7.82
2019-03-13T08:25:25.002Z,7.77
2019-03-13T08:26:24.925Z,7.67
2019-03-13T08:27:24.835Z,7.71
2019-03-13T08:28:24.745Z,7.62
2019-03-13T08:29:24.654Z,7.69
2019-03-13T08:30:24.584Z,7.63
2019-03-13T08:31:24.494Z,7.74
2019-03-13T08:32:24.397Z,7.74
2019-03-13T08:33:24.322Z,7.82
2019-03-13T08:34:24.258Z,7.84
2019-03-13T08:35:24.164Z,7.77
2019-03-13T08:36:24.075Z,7.82
2019-03-13T08:37:23.971Z,7.84
2019-03-13T08:38:23.892Z,7.94
2019-03-13T08:39:23.807Z,7.91
2019-03-13T08:40:23.729Z,7.95
2019-03-13T08:41:23.636Z,7.84
2019-03-13T08:42:23.547Z,7.94
2019-03-13T08:43:23.472Z,7.95
2019-03-13T08:44:23.388Z,7.92
2019-03-13T08:45:23.322Z,7.96
2019-03-13T08:46:23.220Z,7.99
2019-03-13T08:47:23.120Z,7.95
2019-03-13T08:48:23.040Z,7.95
2019-03-13T08:49:22.954Z,7.95
2019-03-13T08:50:22.891Z,7.95
2019-03-13T08:51:22.779Z,7.95
2019-03-13T08:52:22.711Z,7.88
2019-03-13T08:53:22.618Z,7.94
2019-03-13T08:54:22.539Z,7.89
2019-03-13T08:55:22.459Z,7.94
2019-03-13T08:56:22.371Z,7.94
2019-03-13T08:57:22.268Z,7.94
2019-03-13T08:58:22.193Z,7.94
2019-03-13T08:59:23.642Z,7.96
2019-03-13T09:00:22.044Z,7.95
2019-03-13T09:01:21.929Z,7.92
2019-03-13T09:02:21.849Z,7.94
2019-03-13T09:03:21.767Z,7.96
2019-03-13T09:04:21.687Z,8.04
2019-03-13T09:05:21.614Z,8.06
2019-03-13T09:06:21.503Z,7.99
2019-03-13T09:07:21.420Z,8.03
2019-03-13T09:08:21.339Z,8.07
2019-03-13T09:09:21.255Z,8.14
2019-03-13T09:10:22.603Z,8.14
2019-03-13T09:11:21.084Z,8.06
2019-03-13T09:12:21.000Z,8.06
2019-03-13T09:13:20.916Z,8.14
2019-03-13T09:14:20.823Z,8.09
2019-03-13T09:15:20.757Z,8.07
2019-03-13T09:16:20.654Z,8.10
2019-03-13T09:17:20.691Z,8.00
2019-03-13T09:18:20.483Z,8.07
2019-03-13T09:19:20.398Z,8.10
2019-03-13T09:20:20.335Z,8.00
2019-03-13T09:21:20.228Z,8.04
2019-03-13T09:22:20.143Z,8.04
2019-03-13T09:23:20.087Z,7.96
2019-03-13T09:24:19.974Z,8.00
2019-03-13T09:25:19.906Z,8.04
2019-03-13T09:26:19.821Z,7.96
2019-03-13T09:27:19.725Z,8.07
2019-03-13T09:28:19.639Z,8.10
2019-03-13T09:29:19.575Z,8.03
2019-03-13T09:30:19.485Z,8.10
2019-03-13T09:31:19.400Z,8.07
2019-03-13T09:32:19.297Z,8.03
2019-03-13T09:33:19.219Z,8.04
2019-03-13T09:34:19.131Z,8.14
2019-03-13T09:35:19.060Z,8.17
2019-03-13T09:36:18.966Z,8.17
2019-03-13T09:37:18.893Z,8.18
2019-03-13T09:38:18.798Z,8.21
2019-03-13T09:39:18.709Z,8.20
2019-03-13T09:40:18.634Z,8.28
2019-03-13T09:41:18.530Z,8.17
2019-03-13T09:42:18.453Z,8.14
2019-03-13T09:43:18.367Z,8.25
2019-03-13T09:44:18.284Z,8.25
2019-03-13T09:45:18.204Z,8.21
2019-03-13T09:46:18.122Z,8.20
2019-03-13T09:47:18.034Z,8.17
2019-03-13T09:48:17.941Z,8.13
2019-03-13T09:49:17.851Z,8.03
2019-03-13T09:50:17.793Z,8.02
2019-03-13T09:51:17.682Z,8.00
2019-03-13T09:52:17.602Z,8.02
2019-03-13T09:53:17.520Z,7.91
2019-03-13T09:54:17.433Z,7.81
2019-03-13T09:55:17.358Z,7.82
2019-03-13T09:56:17.265Z,7.82
2019-03-13T09:57:17.176Z,7.82
2019-03-13T09:58:17.094Z,7.85
2019-03-13T09:59:17.006Z,7.77
2019-03-13T10:00:16.928Z,7.86
2019-03-13T10:01:16.853Z,7.81
2019-03-13T10:02:16.755Z,7.81
2019-03-13T10:03:16.670Z,7.81
2019-03-13T10:04:16.591Z,7.76
2019-03-13T10:05:16.497Z,7.76
2019-03-13T10:06:16.434Z,7.70
2019-03-13T10:07:16.324Z,7.74
2019-03-13T10:08:16.255Z,7.74
2019-03-13T10:09:16.151Z,7.76
2019-03-13T10:10:16.076Z,7.67
2019-03-13T10:11:15.993Z,7.70
2019-03-13T10:12:15.903Z,7.70
2019-03-13T10:13:15.815Z,7.76
2019-03-13T10:14:15.734Z,7.74
2019-03-13T10:15:15.652Z,7.73
2019-03-13T10:16:15.569Z,7.74
2019-03-13T10:17:15.479Z,7.81
2019-03-13T10:18:15.397Z,7.86
2019-03-13T10:19:15.295Z,7.89
2019-03-13T10:20:15.220Z,7.96
2019-03-13T10:21:15.144Z,7.92
2019-03-13T10:22:15.041Z,7.92
2019-03-13T10:23:14.981Z,7.96
2019-03-13T10:24:14.879Z,7.95
2019-03-13T10:25:14.783Z,7.95
2019-03-13T10:26:14.721Z,7.99
2019-03-13T10:27:14.611Z,8.02
2019-03-13T10:28:14.532Z,8.07
2019-03-13T10:29:14.462Z,8.07
2019-03-13T10:30:14.360Z,7.95
2019-03-13T10:31:14.287Z,8.02
2019-03-13T10:32:14.195Z,8.07
2019-03-13T10:33:14.109Z,8.02
2019-03-13T10:34:14.023Z,8.03
2019-03-13T10:35:13.939Z,8.07
2019-03-13T10:36:13.863Z,8.04
2019-03-13T10:37:13.766Z,8.06
2019-03-13T10:38:14.477Z,8.12
2019-03-13T10:39:13.596Z,8.17
2019-03-13T10:40:13.510Z,8.13
2019-03-13T10:41:13.446Z,8.14
2019-03-13T10:42:13.346Z,8.12
2019-03-13T10:43:13.262Z,8.10
2019-03-13T10:44:13.176Z,8.13
2019-03-13T10:45:13.087Z,8.09
2019-03-13T10:46:13.014Z,8.18
2019-03-13T10:47:12.922Z,8.24
2019-03-13T10:48:12.894Z,8.20
2019-03-13T10:49:12.765Z,8.14
2019-03-13T10:50:12.700Z,8.13
2019-03-13T10:51:12.590Z,8.17
2019-03-13T10:52:12.512Z,8.20
2019-03-13T10:53:12.409Z,8.20
2019-03-13T10:54:12.332Z,8.22
2019-03-13T10:55:12.257Z,8.24
2019-03-13T10:56:12.165Z,8.20
2019-03-13T10:57:12.147Z,8.34
2019-03-13T10:58:11.990Z,8.28
2019-03-13T10:59:11.903Z,8.37
2019-03-13T11:00:11.821Z,8.40
2019-03-13T11:01:11.744Z,8.42
2019-03-13T11:02:11.653Z,8.52
2019-03-13T11:03:11.560Z,8.54
2019-03-13T11:04:11.486Z,8.49
2019-03-13T11:05:11.390Z,8.36
2019-03-13T11:06:11.320Z,8.49
2019-03-13T11:07:11.230Z,8.55
2019-03-13T11:08:11.142Z,8.50
2019-03-13T11:09:11.059Z,8.50
2019-03-13T11:10:10.975Z,8.65
2019-03-13T11:11:10.898Z,8.64
2019-03-13T11:12:10.810Z,8.61
2019-03-13T11:13:10.722Z,8.50
2019-03-13T11:14:15.498Z,8.50
2019-03-13T11:15:10.562Z,8.60
2019-03-13T11:16:10.488Z,8.47
2019-03-13T11:17:10.383Z,8.54
2019-03-13T11:18:10.301Z,8.61
2019-03-13T11:19:10.209Z,8.49
2019-03-13T11:20:10.130Z,8.61
2019-03-13T11:21:10.058Z,8.61
2019-03-13T11:22:09.960Z,8.54
2019-03-13T11:23:09.889Z,8.65
2019-03-13T11:24:09.788Z,8.63
2019-03-13T11:25:09.711Z,8.68
2019-03-13T11:26:09.657Z,8.67
2019-03-13T11:27:09.536Z,8.65
2019-03-13T11:28:09.462Z,8.57
2019-03-13T11:29:09.368Z,8.63
2019-03-13T11:30:09.283Z,8.68
2019-03-13T11:31:09.226Z,8.58
2019-03-13T11:32:09.126Z,8.58
2019-03-13T11:33:09.039Z,8.63
2019-03-13T11:34:08.951Z,8.63
2019-03-13T11:35:08.866Z,8.55
2019-03-13T11:36:08.778Z,8.55
2019-03-13T11:37:08.720Z,8.63
2019-03-13T11:38:08.608Z,8.55
2019-03-13T11:39:08.528Z,8.64
2019-03-13T11:40:08.450Z,8.64
2019-03-13T11:41:08.363Z,8.50
2019-03-13T11:42:08.286Z,8.63
2019-03-13T11:43:08.189Z,8.61
2019-03-13T11:44:08.110Z,8.49
2019-03-13T11:45:08.019Z,8.64
2019-03-13T11:46:07.933Z,8.45
2019-03-13T11:47:07.867Z,8.63
2019-03-13T11:48:07.770Z,8.63
2019-03-13T11:49:07.677Z,8.57
2019-03-13T11:50:07.604Z,8.57
2019-03-13T11:51:07.518Z,8.60
2019-03-13T11:52:07.446Z,8.60
2019-03-13T11:53:07.350Z,8.76
2019-03-13T11:54:07.316Z,8.76
2019-03-13T11:55:07.183Z,8.64
2019-03-13T11:56:07.094Z,8.64
2019-03-13T11:57:07.026Z,8.79
2019-03-13T11:58:06.927Z,8.71
2019-03-13T11:59:06.840Z,8.78
2019-03-13T12:00:06.755Z,8.80
2019-03-13T12:01:06.671Z,8.78
2019-03-13T12:02:06.596Z,8.76
2019-03-13T12:03:06.498Z,8.83
2019-03-13T12:04:06.424Z,8.89
2019-03-13T12:05:06.339Z,8.91
2019-03-13T12:06:06.255Z,8.96
2019-03-13T12:07:06.190Z,9.01
2019-03-13T12:08:06.090Z,8.94
2019-03-13T12:09:05.998Z,8.94
2019-03-13T12:10:05.920Z,9.13
2019-03-13T12:11:05.826Z,9.01
2019-03-13T12:12:05.751Z,9.16
2019-03-13T12:13:05.670Z,9.06
2019-03-13T12:14:05.571Z,9.00
2019-03-13T12:15:05.490Z,9.10
2019-03-13T12:16:05.409Z,8.93
2019-03-13T12:17:05.333Z,9.06
2019-03-13T12:18:05.232Z,9.08
2019-03-13T12:19:05.179Z,8.96
2019-03-13T12:20:05.066Z,8.94
2019-03-13T12:21:04.987Z,8.98
2019-03-13T12:22:04.910Z,8.98
2019-03-13T12:23:04.823Z,8.97
2019-03-13T12:24:04.734Z,8.94
2019-03-13T12:25:04.640Z,8.80
2019-03-13T12:26:04.563Z,8.82
2019-03-13T12:27:04.498Z,8.80
2019-03-13T12:28:04.412Z,8.80
2019-03-13T12:29:04.312Z,8.78
2019-03-13T12:30:04.232Z,8.67
2019-03-13T12:31:04.149Z,8.54
2019-03-13T12:32:04.077Z,8.50
2019-03-13T12:33:03.971Z,8.43
2019-03-13T12:34:03.900Z,8.29
2019-03-13T12:35:03.803Z,8.28
2019-03-13T12:36:03.722Z,8.20
2019-03-13T12:37:03.655Z,8.14
2019-03-13T12:38:03.548Z,8.20
2019-03-13T12:39:03.466Z,8.12
2019-03-13T12:40:03.384Z,8.12
2019-03-13T12:41:03.300Z,8.09
2019-03-13T12:42:03.225Z,8.00
2019-03-13T12:43:03.127Z,7.99
2019-03-13T12:44:03.038Z,8.00
2019-03-13T12:45:02.962Z,7.91
2019-03-13T12:46:02.867Z,7.96
2019-03-13T12:47:02.842Z,8.02
2019-03-13T12:48:15.843Z,7.94
2019-03-13T12:49:02.628Z,8.03
2019-03-13T12:50:02.533Z,8.02
2019-03-13T12:51:02.448Z,8.00
2019-03-13T12:52:02.367Z,7.94
2019-03-13T12:53:02.271Z,8.09
2019-03-13T12:54:02.189Z,8.06
2019-03-13T12:55:02.863Z,8.03
2019-03-13T12:56:02.016Z,8.06
2019-03-13T12:57:01.965Z,8.07
2019-03-13T12:58:01.846Z,8.03
2019-03-13T12:59:01.760Z,8.07
2019-03-13T13:00:01.685Z,8.04
2019-03-13T13:01:01.591Z,8.07
2019-03-13T13:02:01.513Z,8.03
2019-03-13T13:03:01.449Z,8.09
2019-03-13T13:04:01.337Z,8.07
2019-03-13T13:05:01.259Z,8.17
2019-03-13T13:06:01.179Z,8.12
2019-03-13T13:07:01.104Z,8.07
2019-03-13T13:08:01.011Z,8.17
2019-03-13T13:09:00.916Z,8.13
2019-03-13T13:10:00.825Z,8.10
2019-03-13T13:11:00.745Z,8.04
2019-03-13T13:12:00.659Z,8.03
2019-03-13T13:13:00.588Z,8.02
2019-03-13T13:14:00.493Z,8.03
2019-03-13T13:15:00.411Z,8.10
2019-03-13T13:16:00.315Z,8.12
2019-03-13T13:17:00.237Z,8.13